Latest Weather Observations for Sheoaks

IDV60801

Issued at 3:02 pm EDT Friday 6 March 2015 (issued every 30 minutes, with the page automatically refreshed every 10 minutes)

About weather observations | Map of weather stations | Latest weather observations for VIC | Other Formats
Station Details ID: 087168 Name: SHEOAKS Lat: -37.91 Lon: 144.13 Height: 236.7 m
Data from the previous 72 hours. | See also: Recent months at Sheoaks
Date/Time
EDT
Temp
°C
App
Temp
°C
Dew
Point
Rel
Hum
%
Delta-T
°C
Wind Press
QNH
hPa
Press
MSL
hPa
Rain
since 9 am
mm
Dir
 
Spd
km/h
Gust
km/h
Spd
kts
Gust
kts
06/03:00pm 17.0 13.5 13.3 79 2.1 SW 24 41 13 22 1011.8 1011.2 0.2
06/02:30pm 17.5 14.5 13.8 79 2.1 SW 22 37 12 20 1011.7 1011.1 0.0
06/02:00pm 17.6 15.3 14.1 80 2.0 WSW 19 33 10 18 1011.8 1011.2 0.0
06/01:30pm 17.9 15.1 13.2 74 2.7 WSW 20 37 11 20 1011.9 1011.3 0.0
06/01:00pm 17.9 14.1 12.4 70 3.1 WSW 24 43 13 23 1011.9 1011.3 0.0
06/12:30pm 16.9 13.2 12.6 76 2.4 WSW 24 43 13 23 1012.0 1011.4 0.0
06/12:00pm 16.2 12.6 13.1 82 1.7 WSW 24 50 13 27 1012.1 1011.5 0.0
06/11:30am 15.2 11.6 13.2 88 1.1 WSW 24 43 13 23 1012.3 1011.8 0.0
06/11:00am 15.1 11.1 13.0 87 1.2 W 26 39 14 21 1012.2 1011.6 0.0
06/10:30am 14.4 11.0 12.6 89 1.0 W 22 43 12 23 1012.0 1011.4 0.0
06/10:00am 14.3 9.7 12.3 88 1.1 W 28 44 15 24 1011.7 1011.1 0.0
06/09:30am 13.9 8.8 11.9 88 1.1 W 30 44 16 24 1011.4 1010.9 0.0
06/09:08am 13.6 8.8 11.7 88 1.0 W 28 46 15 25 1011.4 1010.9 0.0
06/09:00am 13.6 9.2 11.7 88 1.0 W 26 44 14 24 1011.3 1010.8 0.0
06/08:31am 13.0 8.0 10.9 87 1.1 W 28 46 15 25 1011.1 1010.6 0.0
06/08:30am 13.1 7.7 11.0 87 1.1 W 30 46 16 25 1011.2 1010.7 0.0
06/08:02am 13.0 7.4 10.2 83 1.5 W 30 48 16 26 1011.0 1010.5 0.0
06/08:00am 13.0 7.4 10.2 83 1.5 W 30 43 16 23 1010.9 1010.4 0.0
06/07:50am 12.9 7.2 9.9 82 1.6 W 30 48 16 26 1011.0 1010.5 0.0
06/07:30am 12.8 7.7 9.3 79 1.8 W 26 46 14 25 1010.7 1010.2 0.0
06/07:00am 12.9 6.9 8.8 76 2.1 W 30 52 16 28 1010.5 1010.0 0.0
06/06:56am 12.9 6.9 8.6 75 2.2 W 30 52 16 28 1010.4 1009.9 0.0
06/06:30am 12.7 7.3 8.2 74 2.3 WNW 26 41 14 22 1010.4 1009.9 0.0
06/06:00am 12.7 7.7 8.0 73 2.3 WNW 24 37 13 20 1010.6 1010.1 0.0
06/05:30am 12.6 7.2 7.9 73 2.3 W 26 39 14 21 1010.9 1010.4 0.0
06/05:00am 12.4 6.9 7.7 73 2.3 W 26 41 14 22 1011.1 1010.6 0.0
06/04:30am 12.2 6.3 7.5 73 2.3 WNW 28 46 15 25 1011.3 1010.8 0.0
06/04:00am 12.0 6.4 7.3 73 2.3 WNW 26 43 14 23 1011.7 1011.1 0.0
06/03:30am 12.0 6.1 7.3 73 2.3 WNW 28 43 15 23 1012.0 1011.4 0.0
06/03:03am 12.1 5.7 7.0 71 2.5 W 30 50 16 27 1012.2 1011.6 0.0
06/03:00am 12.2 5.4 7.1 71 2.5 WNW 32 50 17 27 1012.2 1011.6 0.0
06/02:39am 12.1 6.1 7.0 71 2.5 WNW 28 46 15 25 1012.4 1011.9 0.0
06/02:30am 12.2 5.4 6.9 70 2.6 WNW 32 46 17 25 1012.5 1012.0 0.0
06/02:07am 12.2 5.4 6.9 70 2.6 WNW 32 50 17 27 1012.7 1012.2 0.0
06/02:00am 12.1 5.3 6.8 70 2.6 WNW 32 46 17 25 1013.0 1012.5 0.0
06/01:30am 12.1 5.2 6.6 69 2.6 WNW 32 54 17 29 1012.9 1012.4 0.0
06/01:28am 12.0 5.1 6.5 69 2.6 WNW 32 54 17 29 1012.9 1012.4 0.0
06/01:00am 11.8 5.3 6.3 69 2.6 WNW 30 44 16 24 1013.3 1012.8 0.0
06/12:30am 11.9 6.0 5.8 66 2.9 WNW 26 44 14 24 1013.8 1013.3 0.0
06/12:00am 12.2 5.8 5.4 63 3.2 WNW 28 48 15 26 1013.9 1013.4 0.0
 
Date/Time
EDT
Temp
°C
App
Temp
°C
Dew
Point
Rel
Hum
%
Delta-T
°C
Wind Press
QNH
hPa
Press
MSL
hPa
Rain
since 9 am
mm
Dir
 
Spd
km/h
Gust
km/h
Spd
kts
Gust
kts
05/11:54pm 12.2 5.8 5.4 63 3.2 W 28 48 15 26 1014.1 1013.6 0.0
05/11:30pm 12.2 6.2 5.1 62 3.3 W 26 39 14 21 1014.6 1014.1 0.0
05/11:00pm 12.2 6.2 5.4 63 3.2 W 26 39 14 21 1014.6 1014.1 0.0
05/10:30pm 12.2 7.0 5.4 63 3.2 W 22 35 12 19 1015.0 1014.5 0.0
05/10:00pm 12.6 7.4 5.3 61 3.4 W 22 33 12 18 1015.4 1014.9 0.0
05/09:30pm 12.9 7.2 5.1 59 3.7 W 24 37 13 20 1015.6 1015.1 0.0
05/09:00pm 12.8 8.6 5.5 61 3.4 W 17 24 9 13 1015.5 1015.0 0.0
05/08:30pm 13.2 9.0 5.9 61 3.5 WSW 17 32 9 17 1015.6 1015.1 0.0
05/08:00pm 13.8 8.4 4.4 53 4.4 W 22 35 12 19 1015.7 1015.2 0.0
05/07:30pm 14.0 8.8 3.8 50 4.7 W 20 30 11 16 1016.0 1015.5 0.0
05/07:00pm 14.6 9.5 4.0 49 4.9 WSW 20 35 11 19 1016.1 1015.6 0.0
05/06:30pm 15.5 10.7 4.6 48 5.2 WSW 19 35 10 19 1016.0 1015.5 0.0
05/06:00pm 15.7 10.4 3.2 43 5.8 WSW 20 35 11 19 1016.1 1015.6 0.0
05/05:30pm 16.8 10.5 3.5 41 6.2 WSW 26 43 14 23 1016.3 1015.8 0.0
05/05:00pm 17.5 12.6 4.1 41 6.4 WSW 19 30 10 16 1016.5 1016.0 0.0
05/04:30pm 17.1 12.1 3.4 40 6.4 WSW 19 32 10 17 1016.5 1016.0 0.0
05/04:00pm 17.7 12.0 2.8 37 6.9 WSW 22 43 12 23 1016.6 1016.1 0.0
05/03:30pm 16.8 11.4 2.4 38 6.6 WSW 20 35 11 19 1016.9 1016.4 0.0
05/03:00pm 17.1 11.7 2.7 38 6.6 WSW 20 35 11 19 1017.1 1016.6 0.0
05/02:30pm 17.8 12.9 4.0 40 6.6 WSW 19 30 10 16 1017.3 1016.8 0.0
05/02:00pm 17.4 12.4 4.7 43 6.1 SW 20 33 11 18 1017.4 1016.9 0.0
05/01:30pm 17.4 12.9 4.0 41 6.4 WSW 17 28 9 15 1017.4 1016.9 0.0
05/01:00pm 16.6 10.4 1.9 37 6.6 SW 24 41 13 22 1017.9 1017.4 0.0
05/12:30pm 15.6 9.8 2.1 40 6.1 SW 22 33 12 18 1018.2 1017.7 0.0
05/12:00pm 15.7 10.2 3.8 45 5.5 SW 22 37 12 20 1018.3 1017.8 0.0
05/11:30am 14.8 9.9 5.1 52 4.6 SW 20 37 11 20 1018.2 1017.7 0.0
05/11:00am 14.2 8.7 4.2 51 4.6 SW 22 37 12 20 1018.3 1017.8 0.0
05/10:30am 13.0 7.3 4.7 57 3.9 SW 24 37 13 20 1018.4 1017.9 0.0
05/10:13am 12.5 5.9 4.0 56 3.9 SW 28 46 15 25 1018.1 1017.6 0.0
05/10:00am 13.0 6.0 4.2 55 4.0 SW 30 46 16 25 1017.9 1017.4 0.0
05/09:57am 13.1 6.5 4.3 55 4.1 SW 28 46 15 25 1017.9 1017.4 0.0
05/09:30am 12.3 6.4 4.0 57 3.8 SW 24 35 13 19 1017.4 1016.9 0.0
05/09:00am 11.6 6.6 4.8 63 3.1 SW 20 35 11 19 1017.1 1016.6 0.2
05/08:30am 10.2 6.6 5.0 70 2.4 WSW 13 28 7 15 1016.8 1016.3 0.2
05/08:00am 9.4 5.7 4.6 72 2.2 WSW 13 22 7 12 1016.3 1015.8 0.2
05/07:30am 9.0 5.3 4.2 72 2.1 WSW 13 22 7 12 1015.4 1014.9 0.2
05/07:00am 8.8 5.4 4.0 72 2.1 WSW 11 28 6 15 1014.8 1014.3 0.2
05/06:30am 9.2 4.2 3.8 69 2.4 SW 19 30 10 16 1014.6 1014.1 0.2
05/06:00am 9.4 4.8 3.8 68 2.5 SW 17 28 9 15 1014.6 1014.1 0.2
05/05:30am 9.7 4.8 4.1 68 2.5 WSW 19 32 10 17 1014.3 1013.8 0.2
05/05:00am 10.0 5.1 4.2 67 2.6 WSW 19 32 10 17 1013.7 1013.2 0.2
05/04:30am 10.2 5.5 5.2 71 2.3 WSW 19 32 10 17 1013.3 1012.8 0.2
05/04:00am 10.7 5.6 6.1 73 2.2 WSW 22 43 12 23 1012.8 1012.3 0.2
05/03:30am 11.5 7.0 8.5 82 1.5 WSW 22 37 12 20 1012.5 1012.0 0.2
05/03:02am 12.1 6.6 9.1 82 1.5 WSW 28 48 15 26 1011.6 1011.0 0.2
05/03:00am 12.1 6.2 9.1 82 1.5 WSW 30 48 16 26 1011.4 1010.9 0.2
05/02:30am 12.7 7.6 10.6 87 1.1 W 28 48 15 26 1010.8 1010.3 0.2
05/02:00am 12.8 6.9 11.2 90 0.9 W 33 56 18 30 1010.6 1010.1 0.2
05/01:30am 14.5 9.2 11.1 80 1.8 W 30 57 16 31 1010.1 1009.6 0.0
05/01:02am 15.3 9.5 10.9 75 2.4 W 32 56 17 30 1009.7 1009.2 0.0
05/01:00am 15.3 9.5 10.7 74 2.5 WNW 32 48 17 26 1009.7 1009.2 0.0
05/12:32am 15.7 10.1 10.0 69 3.0 W 30 48 16 26 1009.8 1009.3 0.0
05/12:30am 15.6 9.5 9.7 68 3.1 W 32 50 17 27 1009.8 1009.3 0.0
05/12:22am 15.5 9.7 9.6 68 3.1 W 30 50 16 27 1009.8 1009.3 0.0
05/12:00am 15.5 10.8 9.4 67 3.2 WNW 24 43 13 23 1009.7 1009.2 0.0
 
Date/Time
EDT
Temp
°C
App
Temp
°C
Dew
Point
Rel
Hum
%
Delta-T
°C
Wind Press
QNH
hPa
Press
MSL
hPa
Rain
since 9 am
mm
Dir
 
Spd
km/h
Gust
km/h
Spd
kts
Gust
kts
04/11:30pm 16.2 10.8 9.4 64 3.6 W 28 43 15 23 1010.1 1009.6 0.0
04/11:01pm 17.3 11.1 9.5 60 4.1 W 32 57 17 31 1010.0 1009.5 0.0
04/11:00pm 17.4 11.6 9.3 59 4.3 W 30 46 16 25 1010.1 1009.6 0.0
04/10:52pm 17.5 11.9 8.9 57 4.5 WNW 28 48 15 26 1010.1 1009.6 0.0
04/10:30pm 17.4 14.4 9.1 58 4.4 WNW 15 26 8 14 1010.3 1009.8 0.0
04/10:00pm 17.3 13.3 8.4 56 4.6 WNW 19 33 10 18 1010.5 1010.0 0.0
04/09:30pm 18.3 13.1 8.8 54 5.0 W 26 39 14 21 1010.6 1010.1 0.0
04/09:00pm 19.1 14.7 9.0 52 5.4 W 22 32 12 17 1010.6 1010.1 0.0
04/08:30pm 19.2 15.1 8.8 51 5.5 WNW 20 35 11 19 1010.1 1009.6 0.0
04/08:00pm 19.4 16.3 8.7 50 5.7 WNW 15 28 8 15 1010.2 1009.7 0.0
04/07:30pm 19.9 16.0 8.6 48 6.0 WNW 19 28 10 15 1010.4 1009.9 0.0
04/07:00pm 20.1 14.8 8.4 47 6.2 W 26 41 14 22 1010.5 1010.0 0.0
04/06:30pm 20.9 15.6 8.5 45 6.6 W 26 41 14 22 1010.7 1010.2 0.0
04/06:00pm 20.7 15.5 8.7 46 6.4 W 26 41 14 22 1010.9 1010.4 0.0
04/05:30pm 21.9 17.2 9.4 45 6.8 W 24 41 13 22 1010.9 1010.4 0.0
04/05:00pm 21.5 17.0 8.7 44 6.8 W 22 37 12 20 1011.0 1010.5 0.0
04/04:30pm 21.8 17.3 8.7 43 7.0 WNW 22 35 12 19 1011.4 1010.9 0.0
04/04:00pm 22.2 18.6 9.7 45 6.8 W 19 33 10 18 1011.7 1011.1 0.0
04/03:30pm 20.6 16.6 8.9 47 6.2 W 20 33 11 18 1012.2 1011.6 0.0
04/03:00pm 21.1 17.2 9.4 47 6.3 W 20 35 11 19 1012.5 1012.0 0.0
04/02:30pm 20.3 15.9 8.9 48 6.1 WNW 22 37 12 20 1013.0 1012.5 0.0
04/02:00pm 20.4 16.7 9.3 49 6.0 W 19 37 10 20 1013.4 1012.9 0.0
04/01:30pm 19.8 16.1 9.4 51 5.6 WNW 19 30 10 16 1013.8 1013.3 0.0
04/01:00pm 19.2 15.3 9.4 53 5.2 WNW 20 33 11 18 1014.2 1013.7 0.0
04/12:30pm 18.5 15.3 9.8 57 4.7 WNW 17 28 9 15 1014.7 1014.2 0.0
04/12:00pm 16.7 12.7 8.9 60 4.1 W 20 33 11 18 1015.4 1014.9 0.0
04/11:30am 16.7 13.2 8.7 59 4.2 W 17 32 9 17 1015.6 1015.1 0.0
04/11:00am 15.7 11.8 8.7 63 3.6 W 19 32 10 17 1016.0 1015.5 0.0
04/10:30am 15.9 12.0 8.6 62 3.8 WNW 19 28 10 15 1015.8 1015.4 0.0
04/10:00am 15.9 11.9 8.4 61 3.8 W 19 28 10 15 1015.5 1015.0 0.0
04/09:30am 14.9 11.9 9.3 69 2.9 W 15 30 8 16 1015.6 1015.1 0.0
04/09:00am 13.8 11.1 10.4 80 1.8 WNW 15 24 8 13 1015.5 1015.0 0.0
04/08:30am 12.4 9.9 9.8 84 1.3 WNW 13 24 7 13 1015.4 1014.9 0.0
04/08:00am 10.8 8.9 8.9 88 1.0 NW 9 17 5 9 1015.4 1014.9 0.0
04/07:30am 10.1 7.7 8.5 90 0.8 NW 11 17 6 9 1015.0 1014.5 0.0
04/07:00am 9.7 7.6 8.1 90 0.8 NW 9 13 5 7 1014.9 1014.4 0.0
04/06:30am 9.6 7.8 8.0 90 0.8 NNW 7 11 4 6 1014.9 1014.4 0.0
04/06:00am 9.7 7.9 8.1 90 0.8 NW 7 11 4 6 1014.9 1014.4 0.0
04/05:30am 9.8 8.1 8.4 91 0.7 NW 7 9 4 5 1015.1 1014.6 0.0
04/05:00am 10.5 8.9 8.8 89 0.8 NW 7 9 4 5 1015.0 1014.5 0.0
04/04:30am 10.7 9.4 9.3 91 0.7 NW 6 9 3 5 1015.2 1014.7 0.0
04/04:00am 11.5 10.3 9.6 88 1.0 NW 6 7 3 4 1015.4 1014.9 0.0
04/03:30am 12.4 11.8 10.3 87 1.1 NW 4 6 2 3 1015.5 1015.0 0.0
04/03:00am 12.6 12.0 10.5 87 1.1 NNW 4 6 2 3 1015.7 1015.2 0.0
04/02:30am 12.3 11.3 10.4 88 1.0 NNW 6 7 3 4 1016.2 1015.7 0.0
04/02:00am 11.7 11.0 9.9 89 0.9 NNW 4 6 2 3 1016.5 1016.0 0.0
04/01:30am 11.2 9.8 9.6 90 0.8 NNW 7 7 4 4 1016.6 1016.1 0.0
04/01:00am 10.7 9.2 9.3 91 0.7 NNW 7 9 4 5 1016.8 1016.3 0.0
04/12:30am 10.1 8.5 8.7 91 0.7 N 7 9 4 5 1017.1 1016.6 0.0
04/12:00am 10.4 9.0 8.8 90 0.8 N 6 7 3 4 1017.2 1016.7 0.0
 
Date/Time
EDT
Temp
°C
App
Temp
°C
Dew
Point
Rel
Hum
%
Delta-T
°C
Wind Press
QNH
hPa
Press
MSL
hPa
Rain
since 9 am
mm
Dir
 
Spd
km/h
Gust
km/h
Spd
kts
Gust
kts
03/11:30pm 10.9 9.5 9.0 88 1.0 N 6 7 3 4 1017.4 1016.9 0.0
03/11:00pm 11.5 11.3 9.2 86 1.2 CALM 0 0 0 0 1017.5 1017.0 0.0
03/10:30pm 12.3 12.2 9.3 82 1.5 CALM 0 2 0 1 1017.6 1017.1 0.0
03/10:00pm 13.9 13.3 10.3 79 1.9 SSE 4 6 2 3 1017.5 1017.0 0.0
03/09:30pm 14.1 13.4 10.1 77 2.1 SE 4 6 2 3 1017.4 1016.9 0.0
03/09:00pm 14.4 13.1 10.0 75 2.3 SE 7 9 4 5 1017.1 1016.6 0.0
03/08:30pm 15.6 14.1 10.4 71 2.8 SE 9 13 5 7 1016.7 1016.2 0.0
03/08:00pm 16.4 14.1 10.5 68 3.2 SE 13 17 7 9 1016.3 1015.8 0.0
03/07:30pm 17.6 15.2 10.0 61 4.1 SE 13 19 7 10 1016.2 1015.7 0.0
03/07:00pm 18.7 15.5 9.8 56 4.8 SE 17 20 9 11 1016.1 1015.6 0.0
03/06:30pm 19.8 16.9 9.7 52 5.4 SE 15 24 8 13 1015.8 1015.4 0.0
03/06:00pm 20.6 17.3 9.5 49 6.0 SE 17 24 9 13 1015.5 1015.0 0.0
03/05:30pm 21.2 17.9 9.4 47 6.4 SE 17 24 9 13 1015.4 1014.9 0.0
03/05:00pm 22.3 19.8 9.8 45 6.8 SSE 13 20 7 11 1015.3 1014.8 0.0
03/04:30pm 23.3 21.5 7.8 37 8.2 SSE 7 13 4 7 1015.4 1014.9 0.0
03/04:00pm 23.1 21.0 8.4 39 7.9 S 9 20 5 11 1015.6 1015.1 0.0
03/03:30pm 22.6 21.6 8.7 41 7.5 WSW 4 15 2 8 1016.0 1015.5 0.0

Other Formats:

Comma delimited format used in spreadsheet applications
http://www.bom.gov.au/fwo/IDV60801/IDV60801.94863.axf

JavaScript Object Notation format (JSON) in row-major order
http://www.bom.gov.au/fwo/IDV60801/IDV60801.94863.json